Time;durP1;ratioP1;P1;durP2;ratioP2;P2;SDS_P1;SDS_P2;PMS_P1;PMS_P2;Temp;Humidity;BMP_temperature;BMP_pressure;BME280_temperature;BME280_humidity;BME280_pressure;Samples;Min_cycle;Max_cycle;Signal;HPM_P1;HPM_P2
2023/06/10 00:16:11;;;;;;;;;;;;;;;22.15;59.27;99856.38;41824935;28;19912;-76
2023/06/10 00:36:12;;;;;;;;;;;;;;;22.03;59.07;99860.94;41825599;28;19936;-77
2023/06/10 00:56:13;;;;;;;;;;;;;;;21.89;59.11;99867.44;41823117;28;19947;-76
2023/06/10 01:16:13;;;;;;;;;;;;;;;21.74;58.78;99867.81;41820716;28;19978;-75
2023/06/10 01:36:16;;;;;;;;;;;;;;;21.65;59.09;99868.63;41824448;28;19925;-76
2023/06/10 01:56:19;;;;;;;;;;;;;;;21.59;59.01;99871.78;41821050;28;19932;-76
2023/06/10 02:16:21;;;;;;;;;;;;;;;21.44;59.15;99871.31;41815120;28;20484;-75
2023/06/10 02:36:23;;;;;;;;;;;;;;;21.35;59.00;99877.34;41817891;28;19956;-75
2023/06/10 02:56:25;;;;;;;;;;;;;;;21.28;59.21;99874.44;41828240;28;20028;-77
2023/06/10 03:16:27;;;;;;;;;;;;;;;21.20;59.98;99888.28;41855340;28;20520;-76
2023/06/10 03:36:29;;;;;;;;;;;;;;;21.17;60.39;99898.22;41835548;28;19940;-76
2023/06/10 03:56:29;;;;;;;;;;;;;;;21.33;60.57;99887.22;41809064;28;19929;-75
2023/06/10 04:16:29;;;;;;;;;;;;;;;21.62;59.83;99887.34;41825073;28;19929;-73
2023/06/10 04:36:29;;;;;;;;;;;;;;;21.67;59.09;99893.03;41816217;28;19936;-76
2023/06/10 04:56:30;;;;;;;;;;;;;;;21.85;58.29;99882.69;41802244;28;19937;-78
2023/06/10 05:16:30;;;;;;;;;;;;;;;21.86;57.92;99880.88;41790822;28;20066;-76
2023/06/10 05:36:31;;;;;;;;;;;;;;;21.70;58.12;99898.06;41775078;28;20031;-73
2023/06/10 05:56:31;;;;;;;;;;;;;;;21.81;58.32;99912.09;41770036;28;19936;-74
2023/06/10 06:16:32;;;;;;;;;;;;;;;21.90;58.25;99909.47;41788315;28;19929;-74
2023/06/10 06:36:33;;;;;;;;;;;;;;;21.85;59.29;99918.75;41814345;28;19924;-71
2023/06/10 06:56:33;;;;;;;;;;;;;;;21.76;59.81;99930.94;41802960;28;19924;-75
2023/06/10 07:16:34;;;;;;;;;;;;;;;21.98;59.32;99929.88;41788757;28;19932;-73
2023/06/10 07:36:34;;;;;;;;;;;;;;;22.03;59.11;99927.69;41813900;28;19984;-78
2023/06/10 07:56:34;;;;;;;;;;;;;;;22.22;58.99;99939.22;41833790;28;20396;-78
2023/06/10 08:16:35;;;;;;;;;;;;;;;22.31;58.97;99921.75;41846060;28;20187;-78
2023/06/10 08:36:35;;;;;;;;;;;;;;;22.45;59.16;99916.09;41843437;28;19925;-73
2023/06/10 08:56:38;;;;;;;;;;;;;;;22.63;57.54;99899.56;41826689;28;19925;-81
2023/06/10 09:16:39;;;;;;;;;;;;;;;22.81;57.36;99871.50;41814602;28;20797;-77
2023/06/10 09:36:40;;;;;;;;;;;;;;;22.94;57.10;99870.34;41764311;28;19937;-77
2023/06/10 09:56:42;;;;;;;;;;;;;;;23.03;57.64;99874.75;41767904;28;19932;-71
2023/06/10 10:16:43;;;;;;;;;;;;;;;23.20;58.41;99872.38;41758692;28;20015;-69
2023/06/10 10:36:45;;;;;;;;;;;;;;;23.33;58.96;99854.41;41779332;28;19929;-70
2023/06/10 10:57:04;;;;;;;;;;;;;;;23.56;61.09;99848.72;41751195;28;20368;-73
2023/06/10 11:17:17;;;;;;;;;;;;;;;23.82;61.42;99814.47;41759143;28;19929;-72
2023/06/10 11:37:18;;;;;;;;;;;;;;;24.02;59.64;99801.94;41812016;28;19929;-70
2023/06/10 11:57:19;;;;;;;;;;;;;;;24.13;58.47;99791.16;41803463;28;19928;-73
2023/06/10 12:17:40;;;;;;;;;;;;;;;24.28;57.80;99769.44;41810422;28;19972;-74
2023/06/10 12:37:41;;;;;;;;;;;;;;;24.34;57.58;99752.09;41792787;28;19939;-72
2023/06/10 13:59:35;;;;;;;;;;;;;;;24.43;55.22;99743.25;42079005;22;20037;-84
2023/06/10 14:19:35;;;;;;;;;;;;;;;24.42;55.48;99736.28;41446659;28;20057;-85
2023/06/10 14:39:36;;;;;;;;;;;;;;;24.42;55.98;99717.75;41414265;28;19926;-86
2023/06/10 14:59:38;;;;;;;;;;;;;;;24.51;55.57;99719.47;41599800;28;19929;-87
2023/06/10 15:19:39;;;;;;;;;;;;;;;24.54;55.37;99755.38;41797050;28;19929;-81
2023/06/10 15:39:40;;;;;;;;;;;;;;;24.48;56.46;99748.06;41788892;28;20397;-79
2023/06/10 15:59:41;;;;;;;;;;;;;;;24.44;57.80;99758.97;41682720;28;19933;-78
2023/06/10 16:19:42;;;;;;;;;;;;;;;24.43;57.37;99767.06;41595783;28;19944;-81
2023/06/10 16:39:42;;;;;;;;;;;;;;;24.43;58.09;99767.06;41579401;28;20383;-86
2023/06/10 16:59:43;;;;;;;;;;;;;;;24.31;59.30;99771.78;41567127;28;19921;-90
2023/06/10 17:19:43;;;;;;;;;;;;;;;24.27;59.62;99791.59;41577374;28;20444;-88
2023/06/10 17:39:44;;;;;;;;;;;;;;;23.96;59.23;99823.72;41565495;28;19976;-86
2023/06/10 17:59:44;;;;;;;;;;;;;;;23.70;60.72;99831.53;41552489;28;19937;-82
2023/06/10 18:19:45;;;;;;;;;;;;;;;23.54;59.90;99821.63;41557722;28;19968;-81
2023/06/10 18:39:45;;;;;;;;;;;;;;;23.41;60.74;99825.44;41516140;28;19940;-76
2023/06/10 18:59:47;;;;;;;;;;;;;;;23.27;61.49;99854.97;41573977;28;20295;-76
2023/06/10 19:19:48;;;;;;;;;;;;;;;23.05;62.52;99859.63;41675170;28;19925;-76
2023/06/10 19:39:48;;;;;;;;;;;;;;;23.05;62.11;99864.91;41690681;28;19930;-80
2023/06/10 19:59:49;;;;;;;;;;;;;;;23.24;61.57;99871.09;41709952;28;20265;-82
2023/06/10 20:19:52;;;;;;;;;;;;;;;23.30;61.03;99876.66;41717690;28;19964;-81
2023/06/10 20:39:52;;;;;;;;;;;;;;;23.29;60.38;99874.13;41721919;28;19955;-83
2023/06/10 20:59:52;;;;;;;;;;;;;;;23.33;59.99;99868.44;41683999;28;20086;-82
2023/06/10 21:19:53;;;;;;;;;;;;;;;23.30;59.58;99871.38;41559360;28;20048;-82
2023/06/10 21:39:54;;;;;;;;;;;;;;;23.26;59.55;99885.00;41543507;28;19929;-83
2023/06/10 21:59:54;;;;;;;;;;;;;;;23.23;59.19;99874.72;41627256;28;19927;-83
2023/06/10 22:19:55;;;;;;;;;;;;;;;23.14;58.76;99874.59;41713052;28;20016;-82
2023/06/10 22:39:55;;;;;;;;;;;;;;;23.07;58.10;99873.50;41734772;28;19975;-81
2023/06/10 22:59:57;;;;;;;;;;;;;;;23.03;57.98;99893.25;41638129;28;19929;-82
2023/06/10 23:19:58;;;;;;;;;;;;;;;22.97;57.71;99872.69;41576875;28;19930;-82
2023/06/10 23:39:58;;;;;;;;;;;;;;;22.94;57.27;99862.44;41565882;28;20020;-80
2023/06/10 23:59:59;;;;;;;;;;;;;;;22.91;57.03;99854.78;41560173;28;19987;-83
